sensor_id;sensor_type;location;lat;lon;timestamp;temperature;humidity
4399;DHT22;2213;49.720;7.296;2024-01-30T00:02:13;0.60;99.90
4399;DHT22;2213;49.720;7.296;2024-01-30T00:04:42;0.70;99.90
4399;DHT22;2213;49.720;7.296;2024-01-30T00:07:11;0.70;99.90
4399;DHT22;2213;49.720;7.296;2024-01-30T00:09:40;0.70;99.90
4399;DHT22;2213;49.720;7.296;2024-01-30T00:12:09;0.60;99.90
4399;DHT22;2213;49.720;7.296;2024-01-30T00:14:41;0.60;99.90
4399;DHT22;2213;49.720;7.296;2024-01-30T00:17:10;0.70;99.90
4399;DHT22;2213;49.720;7.296;2024-01-30T00:19:39;0.60;99.90
4399;DHT22;2213;49.720;7.296;2024-01-30T00:22:07;0.60;99.90
4399;DHT22;2213;49.720;7.296;2024-01-30T00:24:36;0.70;99.90
4399;DHT22;2213;49.720;7.296;2024-01-30T00:27:04;0.60;99.90
4399;DHT22;2213;49.720;7.296;2024-01-30T00:29:33;0.60;99.90
4399;DHT22;2213;49.720;7.296;2024-01-30T00:32:03;0.70;99.90
4399;DHT22;2213;49.720;7.296;2024-01-30T00:34:33;0.60;99.90
4399;DHT22;2213;49.720;7.296;2024-01-30T00:37:01;0.70;99.90
4399;DHT22;2213;49.720;7.296;2024-01-30T00:39:30;0.60;99.90
4399;DHT22;2213;49.720;7.296;2024-01-30T00:41:59;0.60;99.90
4399;DHT22;2213;49.720;7.296;2024-01-30T00:44:27;0.60;99.90
4399;DHT22;2213;49.720;7.296;2024-01-30T00:46:56;0.60;99.90
4399;DHT22;2213;49.720;7.296;2024-01-30T00:49:26;0.60;99.90
4399;DHT22;2213;49.720;7.296;2024-01-30T00:51:55;0.50;99.90
4399;DHT22;2213;49.720;7.296;2024-01-30T00:54:24;0.60;99.90
4399;DHT22;2213;49.720;7.296;2024-01-30T00:56:53;0.40;99.90
4399;DHT22;2213;49.720;7.296;2024-01-30T00:59:21;0.40;99.90
4399;DHT22;2213;49.720;7.296;2024-01-30T01:01:50;0.50;99.90
4399;DHT22;2213;49.720;7.296;2024-01-30T01:04:18;0.50;99.90
4399;DHT22;2213;49.720;7.296;2024-01-30T01:06:49;0.50;99.90
4399;DHT22;2213;49.720;7.296;2024-01-30T01:09:18;0.50;99.90
4399;DHT22;2213;49.720;7.296;2024-01-30T01:11:47;0.50;99.90
4399;DHT22;2213;49.720;7.296;2024-01-30T01:14:16;0.50;99.90
4399;DHT22;2213;49.720;7.296;2024-01-30T01:16:44;0.50;99.90
4399;DHT22;2213;49.720;7.296;2024-01-30T01:19:13;0.50;99.90
4399;DHT22;2213;49.720;7.296;2024-01-30T01:21:42;0.50;99.90
4399;DHT22;2213;49.720;7.296;2024-01-30T01:24:12;0.50;99.90
4399;DHT22;2213;49.720;7.296;2024-01-30T01:39:01;0.30;99.90
4399;DHT22;2213;49.720;7.296;2024-01-30T01:41:32;0.40;99.90
4399;DHT22;2213;49.720;7.296;2024-01-30T01:44:01;0.40;99.90
4399;DHT22;2213;49.720;7.296;2024-01-30T01:46:32;0.40;99.90
4399;DHT22;2213;49.720;7.296;2024-01-30T01:49:02;0.30;99.90
4399;DHT22;2213;49.720;7.296;2024-01-30T01:51:36;0.40;99.90
4399;DHT22;2213;49.720;7.296;2024-01-30T01:54:06;0.30;99.90
4399;DHT22;2213;49.720;7.296;2024-01-30T01:56:37;0.40;99.90
4399;DHT22;2213;49.720;7.296;2024-01-30T01:59:07;0.40;99.90
4399;DHT22;2213;49.720;7.296;2024-01-30T02:01:37;0.40;99.90
4399;DHT22;2213;49.720;7.296;2024-01-30T02:04:08;0.40;99.90
4399;DHT22;2213;49.720;7.296;2024-01-30T02:06:37;0.20;99.90
4399;DHT22;2213;49.720;7.296;2024-01-30T02:09:07;0.20;99.90
4399;DHT22;2213;49.720;7.296;2024-01-30T02:11:37;0.30;99.90
4399;DHT22;2213;49.720;7.296;2024-01-30T02:14:06;0.40;99.90
4399;DHT22;2213;49.720;7.296;2024-01-30T02:16:34;0.30;99.90
4399;DHT22;2213;49.720;7.296;2024-01-30T02:19:03;0.20;99.90
4399;DHT22;2213;49.720;7.296;2024-01-30T02:21:33;0.20;99.90
4399;DHT22;2213;49.720;7.296;2024-01-30T02:24:03;0.20;99.90
4399;DHT22;2213;49.720;7.296;2024-01-30T02:26:32;0.10;99.90
4399;DHT22;2213;49.720;7.296;2024-01-30T02:29:01;0.10;99.90
4399;DHT22;2213;49.720;7.296;2024-01-30T02:31:30;0.10;99.90
4399;DHT22;2213;49.720;7.296;2024-01-30T02:33:58;0.20;99.90
4399;DHT22;2213;49.720;7.296;2024-01-30T02:36:27;0.10;99.90
4399;DHT22;2213;49.720;7.296;2024-01-30T02:38:57;0.10;99.90
4399;DHT22;2213;49.720;7.296;2024-01-30T02:41:25;0.00;99.90
4399;DHT22;2213;49.720;7.296;2024-01-30T02:43:54;0.30;99.90
4399;DHT22;2213;49.720;7.296;2024-01-30T02:46:22;0.20;99.90
4399;DHT22;2213;49.720;7.296;2024-01-30T02:48:51;0.10;99.90
4399;DHT22;2213;49.720;7.296;2024-01-30T02:51:20;0.10;99.90
4399;DHT22;2213;49.720;7.296;2024-01-30T02:53:48;0.10;99.90
4399;DHT22;2213;49.720;7.296;2024-01-30T02:56:18;0.10;99.90
4399;DHT22;2213;49.720;7.296;2024-01-30T02:58:47;0.10;99.90
4399;DHT22;2213;49.720;7.296;2024-01-30T03:01:16;0.10;99.90
4399;DHT22;2213;49.720;7.296;2024-01-30T03:03:45;0.00;99.90
4399;DHT22;2213;49.720;7.296;2024-01-30T03:06:13;0.00;99.90
4399;DHT22;2213;49.720;7.296;2024-01-30T03:08:44;0.10;99.90
4399;DHT22;2213;49.720;7.296;2024-01-30T03:11:12;0.00;99.90
4399;DHT22;2213;49.720;7.296;2024-01-30T03:13:42;0.00;99.90
4399;DHT22;2213;49.720;7.296;2024-01-30T03:16:11;0.00;99.90
4399;DHT22;2213;49.720;7.296;2024-01-30T03:18:39;0.00;99.90
4399;DHT22;2213;49.720;7.296;2024-01-30T03:21:08;0.00;99.90
4399;DHT22;2213;49.720;7.296;2024-01-30T03:23:37;0.00;99.90
4399;DHT22;2213;49.720;7.296;2024-01-30T03:26:05;0.10;99.90
4399;DHT22;2213;49.720;7.296;2024-01-30T03:28:34;0.10;99.90
4399;DHT22;2213;49.720;7.296;2024-01-30T03:31:04;0.10;99.90
4399;DHT22;2213;49.720;7.296;2024-01-30T03:33:32;0.00;99.90
4399;DHT22;2213;49.720;7.296;2024-01-30T03:36:04;0.00;99.90
4399;DHT22;2213;49.720;7.296;2024-01-30T03:38:33;0.00;99.90
4399;DHT22;2213;49.720;7.296;2024-01-30T03:41:01;0.00;99.90
4399;DHT22;2213;49.720;7.296;2024-01-30T03:43:30;-0.10;99.90
4399;DHT22;2213;49.720;7.296;2024-01-30T03:46:00;-0.10;99.90
4399;DHT22;2213;49.720;7.296;2024-01-30T03:48:30;-0.10;99.90
4399;DHT22;2213;49.720;7.296;2024-01-30T03:50:59;-0.10;99.90
4399;DHT22;2213;49.720;7.296;2024-01-30T03:53:28;-0.10;99.90
4399;DHT22;2213;49.720;7.296;2024-01-30T03:55:56;-0.20;99.90
4399;DHT22;2213;49.720;7.296;2024-01-30T03:58:25;-0.10;99.90
4399;DHT22;2213;49.720;7.296;2024-01-30T04:00:52;-0.10;99.90
4399;DHT22;2213;49.720;7.296;2024-01-30T04:03:21;-0.20;99.90
4399;DHT22;2213;49.720;7.296;2024-01-30T04:05:51;-0.20;99.90
4399;DHT22;2213;49.720;7.296;2024-01-30T04:08:20;-0.30;99.90
4399;DHT22;2213;49.720;7.296;2024-01-30T04:10:49;-0.10;99.90
4399;DHT22;2213;49.720;7.296;2024-01-30T04:13:17;-0.10;99.90
4399;DHT22;2213;49.720;7.296;2024-01-30T04:15:46;-0.10;99.90
4399;DHT22;2213;49.720;7.296;2024-01-30T04:18:14;-0.20;99.90
4399;DHT22;2213;49.720;7.296;2024-01-30T04:20:43;-0.30;99.90
4399;DHT22;2213;49.720;7.296;2024-01-30T04:23:14;-0.10;99.90
4399;DHT22;2213;49.720;7.296;2024-01-30T04:25:43;-0.10;99.90
4399;DHT22;2213;49.720;7.296;2024-01-30T04:28:11;-0.10;99.90
4399;DHT22;2213;49.720;7.296;2024-01-30T04:30:40;0.00;99.90
4399;DHT22;2213;49.720;7.296;2024-01-30T04:33:09;0.00;99.90
4399;DHT22;2213;49.720;7.296;2024-01-30T04:35:38;0.10;99.90
4399;DHT22;2213;49.720;7.296;2024-01-30T04:38:07;0.00;99.90
4399;DHT22;2213;49.720;7.296;2024-01-30T04:40:37;0.00;99.90
4399;DHT22;2213;49.720;7.296;2024-01-30T04:43:05;0.10;99.90
4399;DHT22;2213;49.720;7.296;2024-01-30T04:45:34;0.10;99.90
4399;DHT22;2213;49.720;7.296;2024-01-30T04:48:02;0.00;99.90
4399;DHT22;2213;49.720;7.296;2024-01-30T04:50:31;0.00;99.90
4399;DHT22;2213;49.720;7.296;2024-01-30T04:53:00;0.00;99.90
4399;DHT22;2213;49.720;7.296;2024-01-30T04:55:28;0.10;99.90
4399;DHT22;2213;49.720;7.296;2024-01-30T04:57:58;0.00;99.90
4399;DHT22;2213;49.720;7.296;2024-01-30T05:00:27;0.10;99.90
4399;DHT22;2213;49.720;7.296;2024-01-30T05:02:55;0.00;99.90
4399;DHT22;2213;49.720;7.296;2024-01-30T05:05:24;0.00;99.90
4399;DHT22;2213;49.720;7.296;2024-01-30T05:07:52;0.00;99.90
4399;DHT22;2213;49.720;7.296;2024-01-30T05:10:21;0.00;99.90
4399;DHT22;2213;49.720;7.296;2024-01-30T05:12:49;0.10;99.90
4399;DHT22;2213;49.720;7.296;2024-01-30T05:15:20;0.00;99.90
4399;DHT22;2213;49.720;7.296;2024-01-30T05:17:49;0.10;99.90
4399;DHT22;2213;49.720;7.296;2024-01-30T05:20:19;0.00;99.90
4399;DHT22;2213;49.720;7.296;2024-01-30T05:22:48;0.00;99.90
4399;DHT22;2213;49.720;7.296;2024-01-30T05:25:16;-0.10;99.90
4399;DHT22;2213;49.720;7.296;2024-01-30T05:27:45;0.00;99.90
4399;DHT22;2213;49.720;7.296;2024-01-30T05:30:14;0.00;99.90
4399;DHT22;2213;49.720;7.296;2024-01-30T05:32:44;0.00;99.90
4399;DHT22;2213;49.720;7.296;2024-01-30T05:35:12;0.00;99.90
4399;DHT22;2213;49.720;7.296;2024-01-30T05:37:41;0.00;99.90
4399;DHT22;2213;49.720;7.296;2024-01-30T05:40:11;0.00;99.90
4399;DHT22;2213;49.720;7.296;2024-01-30T05:42:39;0.00;99.90
4399;DHT22;2213;49.720;7.296;2024-01-30T05:45:08;0.00;99.90
4399;DHT22;2213;49.720;7.296;2024-01-30T05:47:37;0.00;99.90
4399;DHT22;2213;49.720;7.296;2024-01-30T05:50:08;0.00;99.90
4399;DHT22;2213;49.720;7.296;2024-01-30T05:52:38;-0.10;99.90
4399;DHT22;2213;49.720;7.296;2024-01-30T05:55:07;-0.10;99.90
4399;DHT22;2213;49.720;7.296;2024-01-30T05:57:36;-0.10;99.90
4399;DHT22;2213;49.720;7.296;2024-01-30T06:00:06;-0.10;99.90
4399;DHT22;2213;49.720;7.296;2024-01-30T06:02:35;-0.10;99.90
4399;DHT22;2213;49.720;7.296;2024-01-30T06:05:04;0.00;99.90
4399;DHT22;2213;49.720;7.296;2024-01-30T06:07:35;-0.10;99.90
4399;DHT22;2213;49.720;7.296;2024-01-30T06:10:05;-0.10;99.90
4399;DHT22;2213;49.720;7.296;2024-01-30T06:12:35;-0.10;99.90
4399;DHT22;2213;49.720;7.296;2024-01-30T06:15:05;-0.10;99.90
4399;DHT22;2213;49.720;7.296;2024-01-30T06:17:34;-0.20;99.90
4399;DHT22;2213;49.720;7.296;2024-01-30T06:20:04;-0.10;99.90
4399;DHT22;2213;49.720;7.296;2024-01-30T06:22:37;-0.10;99.90
4399;DHT22;2213;49.720;7.296;2024-01-30T06:25:06;-0.10;99.90
4399;DHT22;2213;49.720;7.296;2024-01-30T06:27:35;-0.10;99.90
4399;DHT22;2213;49.720;7.296;2024-01-30T06:30:05;-0.10;99.90
4399;DHT22;2213;49.720;7.296;2024-01-30T06:32:35;-0.10;99.90
4399;DHT22;2213;49.720;7.296;2024-01-30T06:35:05;-0.10;99.90
4399;DHT22;2213;49.720;7.296;2024-01-30T06:37:35;-0.20;99.90
4399;DHT22;2213;49.720;7.296;2024-01-30T06:40:06;-0.10;99.90
4399;DHT22;2213;49.720;7.296;2024-01-30T06:42:35;-0.20;99.90
4399;DHT22;2213;49.720;7.296;2024-01-30T06:45:04;-0.20;99.90
4399;DHT22;2213;49.720;7.296;2024-01-30T06:47:33;-0.20;99.90
4399;DHT22;2213;49.720;7.296;2024-01-30T06:50:02;-0.20;99.90
4399;DHT22;2213;49.720;7.296;2024-01-30T06:52:31;-0.10;99.90
4399;DHT22;2213;49.720;7.296;2024-01-30T06:55:01;-0.20;99.90
4399;DHT22;2213;49.720;7.296;2024-01-30T06:57:30;-0.10;99.90
4399;DHT22;2213;49.720;7.296;2024-01-30T06:59:58;-0.10;99.90
4399;DHT22;2213;49.720;7.296;2024-01-30T07:02:27;-0.10;99.90
4399;DHT22;2213;49.720;7.296;2024-01-30T07:04:55;-0.10;99.90
4399;DHT22;2213;49.720;7.296;2024-01-30T07:07:24;-0.10;99.90
4399;DHT22;2213;49.720;7.296;2024-01-30T07:09:53;-0.10;99.90
4399;DHT22;2213;49.720;7.296;2024-01-30T07:12:25;-0.10;99.90
4399;DHT22;2213;49.720;7.296;2024-01-30T07:14:53;-0.10;99.90
4399;DHT22;2213;49.720;7.296;2024-01-30T07:17:23;0.00;99.90
4399;DHT22;2213;49.720;7.296;2024-01-30T07:19:52;-0.10;99.90
4399;DHT22;2213;49.720;7.296;2024-01-30T07:22:20;-0.10;99.90
4399;DHT22;2213;49.720;7.296;2024-01-30T07:24:49;-0.10;99.90
4399;DHT22;2213;49.720;7.296;2024-01-30T07:27:19;-0.10;99.90
4399;DHT22;2213;49.720;7.296;2024-01-30T07:29:50;0.00;99.90
4399;DHT22;2213;49.720;7.296;2024-01-30T07:32:18;0.00;99.90
4399;DHT22;2213;49.720;7.296;2024-01-30T07:34:47;0.00;99.90
4399;DHT22;2213;49.720;7.296;2024-01-30T07:37:32;0.00;99.90
4399;DHT22;2213;49.720;7.296;2024-01-30T07:40:02;0.10;99.90
4399;DHT22;2213;49.720;7.296;2024-01-30T07:42:31;0.10;99.90
4399;DHT22;2213;49.720;7.296;2024-01-30T07:45:01;0.10;99.90
4399;DHT22;2213;49.720;7.296;2024-01-30T07:47:30;0.10;99.90
4399;DHT22;2213;49.720;7.296;2024-01-30T07:49:59;0.20;99.90
4399;DHT22;2213;49.720;7.296;2024-01-30T07:52:27;0.20;99.90
4399;DHT22;2213;49.720;7.296;2024-01-30T07:54:56;0.10;99.90
4399;DHT22;2213;49.720;7.296;2024-01-30T07:57:25;0.20;99.90
4399;DHT22;2213;49.720;7.296;2024-01-30T07:59:54;0.10;99.90
4399;DHT22;2213;49.720;7.296;2024-01-30T08:02:25;0.20;99.90
4399;DHT22;2213;49.720;7.296;2024-01-30T08:04:54;0.30;99.90
4399;DHT22;2213;49.720;7.296;2024-01-30T08:07:23;0.30;99.90
4399;DHT22;2213;49.720;7.296;2024-01-30T08:09:52;0.30;99.90
4399;DHT22;2213;49.720;7.296;2024-01-30T08:12:20;0.40;99.90
4399;DHT22;2213;49.720;7.296;2024-01-30T08:14:49;0.40;99.90
4399;DHT22;2213;49.720;7.296;2024-01-30T08:17:18;0.50;99.90
4399;DHT22;2213;49.720;7.296;2024-01-30T08:19:47;0.50;99.90
4399;DHT22;2213;49.720;7.296;2024-01-30T08:22:16;0.50;99.90
4399;DHT22;2213;49.720;7.296;2024-01-30T08:24:45;0.50;99.90
4399;DHT22;2213;49.720;7.296;2024-01-30T08:27:14;0.60;99.90
4399;DHT22;2213;49.720;7.296;2024-01-30T08:29:42;0.60;99.90
4399;DHT22;2213;49.720;7.296;2024-01-30T08:32:11;0.60;99.90
4399;DHT22;2213;49.720;7.296;2024-01-30T08:34:40;0.60;99.90
4399;DHT22;2213;49.720;7.296;2024-01-30T08:37:10;0.60;99.90
4399;DHT22;2213;49.720;7.296;2024-01-30T08:39:39;0.70;99.90
4399;DHT22;2213;49.720;7.296;2024-01-30T08:42:08;0.70;99.90
4399;DHT22;2213;49.720;7.296;2024-01-30T08:44:37;0.70;99.90
4399;DHT22;2213;49.720;7.296;2024-01-30T08:47:06;0.80;99.90
4399;DHT22;2213;49.720;7.296;2024-01-30T08:49:34;0.80;99.90
4399;DHT22;2213;49.720;7.296;2024-01-30T08:52:03;0.80;99.90
4399;DHT22;2213;49.720;7.296;2024-01-30T08:54:34;0.90;99.90
4399;DHT22;2213;49.720;7.296;2024-01-30T08:57:03;1.00;99.90
4399;DHT22;2213;49.720;7.296;2024-01-30T08:59:32;1.00;99.90
4399;DHT22;2213;49.720;7.296;2024-01-30T09:02:01;1.10;99.90
4399;DHT22;2213;49.720;7.296;2024-01-30T09:04:38;1.10;99.90
4399;DHT22;2213;49.720;7.296;2024-01-30T09:07:09;1.20;99.90
4399;DHT22;2213;49.720;7.296;2024-01-30T09:09:40;1.10;99.90
4399;DHT22;2213;49.720;7.296;2024-01-30T09:12:09;1.20;99.90
4399;DHT22;2213;49.720;7.296;2024-01-30T09:14:40;1.20;99.90
4399;DHT22;2213;49.720;7.296;2024-01-30T09:17:09;1.30;99.90
4399;DHT22;2213;49.720;7.296;2024-01-30T09:19:37;1.30;99.90
4399;DHT22;2213;49.720;7.296;2024-01-30T09:22:06;1.40;99.90
4399;DHT22;2213;49.720;7.296;2024-01-30T09:24:35;1.30;99.90
4399;DHT22;2213;49.720;7.296;2024-01-30T09:27:05;1.50;99.90
4399;DHT22;2213;49.720;7.296;2024-01-30T09:29:34;1.50;99.90
4399;DHT22;2213;49.720;7.296;2024-01-30T09:32:05;1.50;99.90
4399;DHT22;2213;49.720;7.296;2024-01-30T09:34:36;1.50;99.90
4399;DHT22;2213;49.720;7.296;2024-01-30T09:37:06;1.60;99.90
4399;DHT22;2213;49.720;7.296;2024-01-30T09:39:35;1.60;99.90
4399;DHT22;2213;49.720;7.296;2024-01-30T09:42:14;1.70;99.90
4399;DHT22;2213;49.720;7.296;2024-01-30T09:44:51;1.70;99.90
4399;DHT22;2213;49.720;7.296;2024-01-30T09:47:21;1.80;99.90
4399;DHT22;2213;49.720;7.296;2024-01-30T09:49:50;1.90;99.90
4399;DHT22;2213;49.720;7.296;2024-01-30T09:52:19;1.90;99.90
4399;DHT22;2213;49.720;7.296;2024-01-30T09:54:49;2.00;99.90
4399;DHT22;2213;49.720;7.296;2024-01-30T09:57:21;2.00;99.90
4399;DHT22;2213;49.720;7.296;2024-01-30T09:59:50;2.10;99.90
4399;DHT22;2213;49.720;7.296;2024-01-30T10:02:21;2.10;99.90
4399;DHT22;2213;49.720;7.296;2024-01-30T10:04:50;2.20;99.90
4399;DHT22;2213;49.720;7.296;2024-01-30T10:07:20;2.30;99.90
4399;DHT22;2213;49.720;7.296;2024-01-30T10:09:49;2.30;99.90
4399;DHT22;2213;49.720;7.296;2024-01-30T10:12:19;2.40;99.90
4399;DHT22;2213;49.720;7.296;2024-01-30T10:14:48;2.50;99.90
4399;DHT22;2213;49.720;7.296;2024-01-30T10:17:17;2.60;99.90
4399;DHT22;2213;49.720;7.296;2024-01-30T10:19:59;2.60;99.90
4399;DHT22;2213;49.720;7.296;2024-01-30T10:22:28;2.70;99.90
4399;DHT22;2213;49.720;7.296;2024-01-30T10:24:57;2.80;99.90
4399;DHT22;2213;49.720;7.296;2024-01-30T10:27:33;2.90;99.90
4399;DHT22;2213;49.720;7.296;2024-01-30T10:30:02;2.90;99.90
4399;DHT22;2213;49.720;7.296;2024-01-30T10:32:31;3.00;99.90
4399;DHT22;2213;49.720;7.296;2024-01-30T10:34:59;3.10;99.90
4399;DHT22;2213;49.720;7.296;2024-01-30T10:37:30;3.10;99.90
4399;DHT22;2213;49.720;7.296;2024-01-30T10:40:03;3.20;99.90
4399;DHT22;2213;49.720;7.296;2024-01-30T10:42:36;3.30;99.90
4399;DHT22;2213;49.720;7.296;2024-01-30T10:45:07;3.40;99.90
4399;DHT22;2213;49.720;7.296;2024-01-30T10:47:40;3.50;99.90
4399;DHT22;2213;49.720;7.296;2024-01-30T10:50:11;3.60;99.90
4399;DHT22;2213;49.720;7.296;2024-01-30T10:52:42;3.70;99.90
4399;DHT22;2213;49.720;7.296;2024-01-30T10:55:11;3.80;99.90
4399;DHT22;2213;49.720;7.296;2024-01-30T10:57:41;3.90;99.90
4399;DHT22;2213;49.720;7.296;2024-01-30T11:00:11;4.00;99.90
4399;DHT22;2213;49.720;7.296;2024-01-30T11:02:44;4.10;99.90
4399;DHT22;2213;49.720;7.296;2024-01-30T11:05:14;4.20;99.90
4399;DHT22;2213;49.720;7.296;2024-01-30T11:07:43;4.30;99.90
4399;DHT22;2213;49.720;7.296;2024-01-30T11:10:12;4.40;99.90
4399;DHT22;2213;49.720;7.296;2024-01-30T11:12:45;4.50;99.90
4399;DHT22;2213;49.720;7.296;2024-01-30T11:15:15;4.80;99.90
4399;DHT22;2213;49.720;7.296;2024-01-30T11:17:47;4.80;99.90
4399;DHT22;2213;49.720;7.296;2024-01-30T11:20:20;5.00;99.90
4399;DHT22;2213;49.720;7.296;2024-01-30T11:22:52;5.10;99.90
4399;DHT22;2213;49.720;7.296;2024-01-30T11:25:22;5.20;99.90
4399;DHT22;2213;49.720;7.296;2024-01-30T11:27:55;5.40;99.90
4399;DHT22;2213;49.720;7.296;2024-01-30T11:30:25;5.50;99.90
4399;DHT22;2213;49.720;7.296;2024-01-30T11:33:05;5.70;99.90
4399;DHT22;2213;49.720;7.296;2024-01-30T11:35:36;5.80;99.90
4399;DHT22;2213;49.720;7.296;2024-01-30T11:38:07;5.90;99.90
4399;DHT22;2213;49.720;7.296;2024-01-30T11:40:38;5.90;99.90
4399;DHT22;2213;49.720;7.296;2024-01-30T11:43:09;6.00;99.90
4399;DHT22;2213;49.720;7.296;2024-01-30T11:45:39;6.10;99.90
4399;DHT22;2213;49.720;7.296;2024-01-30T11:48:08;6.20;99.90
4399;DHT22;2213;49.720;7.296;2024-01-30T11:50:38;6.10;99.90
4399;DHT22;2213;49.720;7.296;2024-01-30T11:53:08;6.30;99.90
4399;DHT22;2213;49.720;7.296;2024-01-30T11:55:37;6.40;99.90
4399;DHT22;2213;49.720;7.296;2024-01-30T11:58:06;6.50;99.90
4399;DHT22;2213;49.720;7.296;2024-01-30T12:00:36;6.50;99.90
4399;DHT22;2213;49.720;7.296;2024-01-30T12:03:05;6.50;99.90
4399;DHT22;2213;49.720;7.296;2024-01-30T12:05:34;6.50;99.90
4399;DHT22;2213;49.720;7.296;2024-01-30T12:08:04;6.70;99.90
4399;DHT22;2213;49.720;7.296;2024-01-30T12:10:34;6.80;99.90
4399;DHT22;2213;49.720;7.296;2024-01-30T12:13:02;6.90;99.90
4399;DHT22;2213;49.720;7.296;2024-01-30T12:15:31;7.00;99.90
4399;DHT22;2213;49.720;7.296;2024-01-30T12:18:06;7.10;99.90
4399;DHT22;2213;49.720;7.296;2024-01-30T12:20:35;7.10;99.90
4399;DHT22;2213;49.720;7.296;2024-01-30T12:23:04;7.10;99.90
4399;DHT22;2213;49.720;7.296;2024-01-30T12:25:32;7.20;99.90
4399;DHT22;2213;49.720;7.296;2024-01-30T12:28:01;7.30;99.90
4399;DHT22;2213;49.720;7.296;2024-01-30T12:30:30;7.30;99.90
4399;DHT22;2213;49.720;7.296;2024-01-30T12:33:00;7.40;99.90
4399;DHT22;2213;49.720;7.296;2024-01-30T12:35:33;7.40;99.90
4399;DHT22;2213;49.720;7.296;2024-01-30T12:38:09;7.50;99.90
4399;DHT22;2213;49.720;7.296;2024-01-30T12:40:38;7.50;99.90
4399;DHT22;2213;49.720;7.296;2024-01-30T12:43:08;7.50;99.90
4399;DHT22;2213;49.720;7.296;2024-01-30T12:45:36;7.60;99.90
4399;DHT22;2213;49.720;7.296;2024-01-30T12:48:06;7.60;99.90
4399;DHT22;2213;49.720;7.296;2024-01-30T12:50:36;7.80;99.90
4399;DHT22;2213;49.720;7.296;2024-01-30T12:53:05;7.70;99.90
4399;DHT22;2213;49.720;7.296;2024-01-30T12:55:34;7.80;99.90
4399;DHT22;2213;49.720;7.296;2024-01-30T12:58:03;7.80;99.90
4399;DHT22;2213;49.720;7.296;2024-01-30T13:00:32;7.80;99.90
4399;DHT22;2213;49.720;7.296;2024-01-30T13:03:03;7.80;99.90
4399;DHT22;2213;49.720;7.296;2024-01-30T13:05:31;7.80;99.90
4399;DHT22;2213;49.720;7.296;2024-01-30T13:08:01;7.80;99.90
4399;DHT22;2213;49.720;7.296;2024-01-30T13:10:30;7.90;99.90
4399;DHT22;2213;49.720;7.296;2024-01-30T13:12:59;7.90;99.90
4399;DHT22;2213;49.720;7.296;2024-01-30T13:15:27;7.90;99.90
4399;DHT22;2213;49.720;7.296;2024-01-30T13:17:56;8.00;99.90
4399;DHT22;2213;49.720;7.296;2024-01-30T13:20:24;7.90;99.90
4399;DHT22;2213;49.720;7.296;2024-01-30T13:22:53;8.00;99.90
4399;DHT22;2213;49.720;7.296;2024-01-30T13:25:23;8.00;99.90
4399;DHT22;2213;49.720;7.296;2024-01-30T13:27:52;8.00;99.90
4399;DHT22;2213;49.720;7.296;2024-01-30T13:30:21;8.00;99.90
4399;DHT22;2213;49.720;7.296;2024-01-30T13:32:49;8.10;99.90
4399;DHT22;2213;49.720;7.296;2024-01-30T13:35:17;8.10;99.90
4399;DHT22;2213;49.720;7.296;2024-01-30T13:37:46;8.10;99.90
4399;DHT22;2213;49.720;7.296;2024-01-30T13:40:16;8.10;99.90
4399;DHT22;2213;49.720;7.296;2024-01-30T13:42:45;8.10;99.90
4399;DHT22;2213;49.720;7.296;2024-01-30T13:45:14;8.10;99.90
4399;DHT22;2213;49.720;7.296;2024-01-30T13:47:43;8.10;99.90
4399;DHT22;2213;49.720;7.296;2024-01-30T13:50:12;8.10;99.90
4399;DHT22;2213;49.720;7.296;2024-01-30T13:52:42;8.00;99.90
4399;DHT22;2213;49.720;7.296;2024-01-30T13:55:12;8.00;99.90
4399;DHT22;2213;49.720;7.296;2024-01-30T13:57:41;8.10;99.90
4399;DHT22;2213;49.720;7.296;2024-01-30T14:00:12;8.10;99.90
4399;DHT22;2213;49.720;7.296;2024-01-30T14:02:43;8.10;99.90
4399;DHT22;2213;49.720;7.296;2024-01-30T14:05:11;8.20;99.90
4399;DHT22;2213;49.720;7.296;2024-01-30T14:07:43;8.10;99.90
4399;DHT22;2213;49.720;7.296;2024-01-30T14:10:12;8.10;99.90
4399;DHT22;2213;49.720;7.296;2024-01-30T14:12:42;8.10;99.90
4399;DHT22;2213;49.720;7.296;2024-01-30T14:15:13;8.10;99.90
4399;DHT22;2213;49.720;7.296;2024-01-30T14:17:54;8.20;99.90
4399;DHT22;2213;49.720;7.296;2024-01-30T14:20:25;8.20;99.90
4399;DHT22;2213;49.720;7.296;2024-01-30T14:22:53;8.20;99.90
4399;DHT22;2213;49.720;7.296;2024-01-30T14:25:23;8.20;99.90
4399;DHT22;2213;49.720;7.296;2024-01-30T14:27:53;8.20;99.90
4399;DHT22;2213;49.720;7.296;2024-01-30T14:30:23;8.20;99.90
4399;DHT22;2213;49.720;7.296;2024-01-30T14:32:52;8.20;99.90
4399;DHT22;2213;49.720;7.296;2024-01-30T14:35:20;8.30;99.90
4399;DHT22;2213;49.720;7.296;2024-01-30T14:37:49;8.20;99.90
4399;DHT22;2213;49.720;7.296;2024-01-30T14:40:18;8.20;99.90
4399;DHT22;2213;49.720;7.296;2024-01-30T14:42:47;8.20;99.90
4399;DHT22;2213;49.720;7.296;2024-01-30T14:45:16;8.20;99.90
4399;DHT22;2213;49.720;7.296;2024-01-30T14:47:46;8.30;99.90
4399;DHT22;2213;49.720;7.296;2024-01-30T14:50:14;8.20;99.90
4399;DHT22;2213;49.720;7.296;2024-01-30T14:52:44;8.20;99.90
4399;DHT22;2213;49.720;7.296;2024-01-30T14:55:13;8.20;99.90
4399;DHT22;2213;49.720;7.296;2024-01-30T14:57:41;8.20;99.90
4399;DHT22;2213;49.720;7.296;2024-01-30T15:00:13;8.30;99.90
4399;DHT22;2213;49.720;7.296;2024-01-30T15:02:43;8.30;99.90
4399;DHT22;2213;49.720;7.296;2024-01-30T15:05:14;8.20;99.90
4399;DHT22;2213;49.720;7.296;2024-01-30T15:07:43;8.20;99.90
4399;DHT22;2213;49.720;7.296;2024-01-30T15:10:12;8.20;99.90
4399;DHT22;2213;49.720;7.296;2024-01-30T15:12:41;8.20;99.90
4399;DHT22;2213;49.720;7.296;2024-01-30T15:15:10;8.20;99.90
4399;DHT22;2213;49.720;7.296;2024-01-30T15:17:38;8.20;99.90
4399;DHT22;2213;49.720;7.296;2024-01-30T15:20:09;8.20;99.90
4399;DHT22;2213;49.720;7.296;2024-01-30T15:22:38;8.20;99.90
4399;DHT22;2213;49.720;7.296;2024-01-30T15:25:07;8.20;99.90
4399;DHT22;2213;49.720;7.296;2024-01-30T15:27:37;8.20;99.90
4399;DHT22;2213;49.720;7.296;2024-01-30T15:30:07;8.20;99.90
4399;DHT22;2213;49.720;7.296;2024-01-30T15:32:39;8.20;99.90
4399;DHT22;2213;49.720;7.296;2024-01-30T15:35:09;8.20;99.90
4399;DHT22;2213;49.720;7.296;2024-01-30T15:37:37;8.20;99.90
4399;DHT22;2213;49.720;7.296;2024-01-30T15:40:07;8.20;99.90
4399;DHT22;2213;49.720;7.296;2024-01-30T15:42:36;8.20;99.90
4399;DHT22;2213;49.720;7.296;2024-01-30T15:45:05;8.20;99.90
4399;DHT22;2213;49.720;7.296;2024-01-30T15:47:34;8.10;99.90
4399;DHT22;2213;49.720;7.296;2024-01-30T15:50:04;8.10;99.90
4399;DHT22;2213;49.720;7.296;2024-01-30T15:52:34;8.10;99.90
4399;DHT22;2213;49.720;7.296;2024-01-30T15:55:03;8.20;99.90
4399;DHT22;2213;49.720;7.296;2024-01-30T15:57:32;8.20;99.90
4399;DHT22;2213;49.720;7.296;2024-01-30T16:00:01;8.20;99.90
4399;DHT22;2213;49.720;7.296;2024-01-30T16:02:30;8.20;99.90
4399;DHT22;2213;49.720;7.296;2024-01-30T16:04:59;8.20;99.90
4399;DHT22;2213;49.720;7.296;2024-01-30T16:07:29;8.20;99.90
4399;DHT22;2213;49.720;7.296;2024-01-30T16:10:01;8.20;99.90
4399;DHT22;2213;49.720;7.296;2024-01-30T16:12:30;8.20;99.90
4399;DHT22;2213;49.720;7.296;2024-01-30T16:14:58;8.20;99.90
4399;DHT22;2213;49.720;7.296;2024-01-30T16:17:27;8.20;99.90
4399;DHT22;2213;49.720;7.296;2024-01-30T16:20:01;8.20;99.90
4399;DHT22;2213;49.720;7.296;2024-01-30T16:22:30;8.20;99.90
4399;DHT22;2213;49.720;7.296;2024-01-30T16:24:58;8.20;99.90
4399;DHT22;2213;49.720;7.296;2024-01-30T16:27:28;8.20;99.90
4399;DHT22;2213;49.720;7.296;2024-01-30T16:29:57;8.20;99.90
4399;DHT22;2213;49.720;7.296;2024-01-30T16:32:25;8.10;99.90
4399;DHT22;2213;49.720;7.296;2024-01-30T16:34:58;8.10;99.90
4399;DHT22;2213;49.720;7.296;2024-01-30T16:37:27;8.20;99.90
4399;DHT22;2213;49.720;7.296;2024-01-30T16:39:56;8.10;99.90
4399;DHT22;2213;49.720;7.296;2024-01-30T16:42:24;8.10;99.90